createdAt,value
2022-12-09T00:01:28.238Z,98168.91
2022-12-09T00:04:40.714Z,98173.92
2022-12-09T00:07:53.066Z,98170.20
2022-12-09T00:11:05.288Z,98164.95
2022-12-09T00:14:18.432Z,98172.19
2022-12-09T00:17:30.514Z,98171.13
2022-12-09T00:20:42.983Z,98170.37
2022-12-09T00:23:57.082Z,98165.00
2022-12-09T00:27:10.772Z,98172.75
2022-12-09T00:30:23.132Z,98172.31
2022-12-09T00:33:37.173Z,98173.59
2022-12-09T00:36:49.417Z,98178.73
2022-12-09T00:40:03.335Z,98184.09
2022-12-09T00:43:15.572Z,98189.86
2022-12-09T00:46:28.199Z,98183.77
2022-12-09T00:49:40.443Z,98175.50
2022-12-09T00:52:52.264Z,98182.08
2022-12-09T00:56:04.405Z,98189.73
2022-12-09T00:59:16.503Z,98187.84
2022-12-09T01:02:28.556Z,98189.78
2022-12-09T01:05:43.485Z,98192.40
2022-12-09T01:08:56.977Z,98180.89
2022-12-09T01:12:09.278Z,98185.94
2022-12-09T01:15:21.122Z,98193.36
2022-12-09T01:18:33.360Z,98196.59
2022-12-09T01:21:45.755Z,98193.13
2022-12-09T01:24:57.981Z,98193.01
2022-12-09T01:28:10.069Z,98190.50
2022-12-09T01:31:24.897Z,98188.41
2022-12-09T01:34:37.181Z,98195.11
2022-12-09T01:37:49.234Z,98184.38
2022-12-09T01:41:01.632Z,98187.72
2022-12-09T01:44:21.902Z,98187.32
2022-12-09T01:47:34.220Z,98194.02
2022-12-09T01:50:49.771Z,98195.59
2022-12-09T01:54:02.557Z,98192.24
2022-12-09T01:57:15.206Z,98190.80
2022-12-09T02:00:29.241Z,98192.36
2022-12-09T02:03:43.430Z,98184.38
2022-12-09T02:06:56.222Z,98190.95
2022-12-09T02:10:14.485Z,98190.95
2022-12-09T02:13:36.380Z,98184.61
2022-12-09T02:16:57.224Z,98185.98
2022-12-09T02:20:17.457Z,98176.66
2022-12-09T02:23:34.605Z,98169.64
2022-12-09T02:26:51.783Z,98170.05
2022-12-09T02:30:12.360Z,98174.93
2022-12-09T02:33:46.827Z,98176.22
2022-12-09T02:37:07.488Z,98169.52
2022-12-09T02:40:24.639Z,98161.16
2022-12-09T02:43:46.652Z,98173.75
2022-12-09T02:46:57.153Z,98170.93
2022-12-09T02:50:16.173Z,98169.12
2022-12-09T02:53:32.228Z,98173.11
2022-12-09T02:56:48.434Z,98162.38
2022-12-09T03:00:01.045Z,98164.07
2022-12-09T03:03:19.155Z,98163.67
2022-12-09T03:06:37.953Z,98162.83
2022-12-09T03:09:55.565Z,98166.05
2022-12-09T03:13:13.952Z,98159.88
2022-12-09T03:16:32.034Z,98158.59
2022-12-09T03:19:48.447Z,98157.53
2022-12-09T03:23:05.661Z,98151.44
2022-12-09T03:26:16.852Z,98137.48
2022-12-09T03:29:32.967Z,98146.80
2022-12-09T03:32:48.049Z,98139.05
2022-12-09T03:36:04.288Z,98135.70
2022-12-09T03:39:20.675Z,98133.80
2022-12-09T03:42:38.283Z,98132.14
2022-12-09T03:45:50.586Z,98140.10
2022-12-09T03:49:03.822Z,98145.47
2022-12-09T03:52:21.779Z,98146.64
2022-12-09T03:55:38.954Z,98148.78
2022-12-09T03:58:51.196Z,98145.14
2022-12-09T04:02:04.070Z,98143.29
2022-12-09T04:05:17.762Z,98146.88
2022-12-09T04:08:29.914Z,98139.62
2022-12-09T04:11:42.301Z,98141.27
2022-12-09T04:14:54.399Z,98144.86
2022-12-09T04:18:06.670Z,98145.06
2022-12-09T04:21:20.815Z,98143.29
2022-12-09T04:24:33.142Z,98146.75
2022-12-09T04:27:45.586Z,98149.49
2022-12-09T04:30:58.771Z,98145.30
2022-12-09T04:34:11.498Z,98147.39
2022-12-09T04:37:23.813Z,98150.13
2022-12-09T04:40:36.210Z,98142.59
2022-12-09T04:43:49.048Z,98147.34
2022-12-09T04:47:01.239Z,98146.84
2022-12-09T04:50:16.434Z,98141.80
2022-12-09T04:53:29.278Z,98153.56
2022-12-09T04:56:41.702Z,98150.84
2022-12-09T04:59:54.395Z,98154.00
2022-12-09T05:03:06.596Z,98160.73
2022-12-09T05:06:20.627Z,98167.63
2022-12-09T05:09:33.030Z,98167.13
2022-12-09T05:12:45.377Z,98169.74
2022-12-09T05:15:57.423Z,98166.39
2022-12-09T05:19:09.774Z,98165.96
2022-12-09T05:22:23.475Z,98164.30
2022-12-09T05:25:35.575Z,98158.33
2022-12-09T05:28:47.667Z,98162.63
2022-12-09T05:31:59.709Z,98161.34
2022-12-09T05:35:13.740Z,98161.98
2022-12-09T05:38:25.847Z,98164.27
2022-12-09T05:41:37.914Z,98159.88
2022-12-09T05:44:49.912Z,98162.06
2022-12-09T05:48:02.210Z,98164.86
2022-12-09T05:51:18.829Z,98159.30
2022-12-09T05:54:30.986Z,98171.97
2022-12-09T05:57:43.747Z,98163.56
2022-12-09T06:00:57.945Z,98157.52
2022-12-09T06:04:10.341Z,98160.03
2022-12-09T06:07:22.820Z,98150.38
2022-12-09T06:10:35.591Z,98142.41
2022-12-09T06:13:48.513Z,98155.30
2022-12-09T06:17:00.916Z,98151.11
2022-12-09T06:20:15.654Z,98155.14
2022-12-09T06:23:27.772Z,98164.52
2022-12-09T06:26:40.072Z,98169.40
2022-12-09T06:29:51.878Z,98165.13
2022-12-09T06:33:17.251Z,98157.86
2022-12-09T06:36:18.552Z,98159.38
2022-12-09T06:39:30.844Z,98184.48
2022-12-09T06:42:43.228Z,98184.02
2022-12-09T06:45:55.353Z,98178.16
2022-12-09T06:49:08.027Z,98183.09
2022-12-09T06:52:20.317Z,98169.65
2022-12-09T06:55:32.399Z,98170.57
2022-12-09T06:58:45.168Z,98161.25
2022-12-09T07:01:57.733Z,98170.03
2022-12-09T07:05:11.881Z,98171.06
2022-12-09T07:08:24.837Z,98177.88
2022-12-09T07:11:37.581Z,98191.11
2022-12-09T07:14:49.778Z,98189.24
2022-12-09T07:18:02.826Z,98178.80
2022-12-09T07:21:18.106Z,98170.03
2022-12-09T07:24:30.927Z,98161.25
2022-12-09T07:27:43.625Z,98168.91
2022-12-09T07:30:55.678Z,98162.38
2022-12-09T07:34:09.305Z,98163.68
2022-12-09T07:37:21.910Z,98140.55
2022-12-09T07:40:34.128Z,98129.89
2022-12-09T07:43:46.305Z,98136.70
2022-12-09T07:46:58.597Z,98133.80
2022-12-09T07:50:13.610Z,98137.90
2022-12-09T07:53:26.057Z,98135.63
2022-12-09T07:56:38.511Z,98131.04
2022-12-09T07:59:51.107Z,98137.75
2022-12-09T08:03:03.559Z,98124.91
2022-12-09T08:06:20.451Z,98125.25
2022-12-09T08:09:32.943Z,98135.64
2022-12-09T08:12:45.486Z,98129.38
2022-12-09T08:15:58.199Z,98136.82
2022-12-09T08:19:10.330Z,98134.75
2022-12-09T08:22:23.650Z,98134.53
2022-12-09T08:25:35.943Z,98142.70
2022-12-09T08:28:48.597Z,98147.02
2022-12-09T08:32:01.074Z,98146.91
2022-12-09T08:35:16.194Z,98143.76
2022-12-09T08:38:28.285Z,98143.57
2022-12-09T08:41:42.482Z,98139.80
2022-12-09T08:45:01.608Z,98145.44
2022-12-09T08:48:09.577Z,98145.75
2022-12-09T08:51:23.767Z,98148.57
2022-12-09T08:54:35.950Z,98145.64
2022-12-09T08:57:48.303Z,98140.09
2022-12-09T09:01:03.403Z,98139.24
2022-12-09T09:04:18.519Z,98132.41
2022-12-09T09:07:31.333Z,98135.33
2022-12-09T09:10:45.087Z,98122.41
2022-12-09T09:13:57.820Z,98115.04
2022-12-09T09:17:10.180Z,98120.80
2022-12-09T09:20:22.719Z,98121.30
2022-12-09T09:23:34.748Z,98118.03
2022-12-09T09:26:50.143Z,98122.19
2022-12-09T09:30:02.345Z,98115.22
2022-12-09T09:33:15.401Z,98111.81
2022-12-09T09:36:30.919Z,98103.38
2022-12-09T09:39:43.286Z,98101.39
2022-12-09T09:42:58.685Z,98092.82
2022-12-09T09:46:13.877Z,98089.23
2022-12-09T09:49:32.944Z,98081.63
2022-12-09T09:52:48.105Z,98090.98
2022-12-09T09:56:05.719Z,98088.84
2022-12-09T09:59:29.648Z,98087.78
2022-12-09T10:03:02.458Z,98088.25
2022-12-09T10:06:25.878Z,98073.59
2022-12-09T10:09:44.462Z,98073.13
2022-12-09T10:13:12.943Z,98073.13
2022-12-09T10:16:28.784Z,98074.94
2022-12-09T10:19:46.847Z,98069.67
2022-12-09T10:23:04.005Z,98067.54
2022-12-09T10:26:21.886Z,98063.48
2022-12-09T10:29:50.696Z,98055.70
2022-12-09T10:33:03.005Z,98054.84
2022-12-09T10:36:34.015Z,98054.36
2022-12-09T10:39:43.317Z,98045.63
2022-12-09T10:43:13.810Z,98039.40
2022-12-09T10:46:29.243Z,98036.86
2022-12-09T10:49:42.304Z,98022.05
2022-12-09T10:52:54.679Z,98023.30
2022-12-09T10:56:11.064Z,98030.66
2022-12-09T10:59:29.854Z,98024.39
2022-12-09T11:02:42.860Z,98028.17
2022-12-09T11:06:03.381Z,98026.76
2022-12-09T11:09:26.223Z,98030.23
2022-12-09T11:12:42.345Z,98026.76
2022-12-09T11:16:01.218Z,98016.03
2022-12-09T11:19:18.409Z,98023.79
2022-12-09T11:22:34.543Z,98017.72
2022-12-09T11:25:59.440Z,98015.02
2022-12-09T11:29:22.113Z,98025.74
2022-12-09T11:32:34.717Z,98022.47
2022-12-09T11:36:00.048Z,98017.25
2022-12-09T11:39:31.923Z,98019.69
2022-12-09T11:42:43.940Z,98017.94
2022-12-09T11:45:55.942Z,98015.48
2022-12-09T11:49:13.642Z,98016.64
2022-12-09T11:52:35.144Z,98002.23
2022-12-09T11:55:51.501Z,97997.74
2022-12-09T11:59:07.807Z,98002.66
2022-12-09T12:02:29.068Z,98003.95
2022-12-09T12:05:45.635Z,98003.20
2022-12-09T12:09:02.530Z,98002.17
2022-12-09T12:12:17.117Z,97978.28
2022-12-09T12:15:34.339Z,97969.25
2022-12-09T12:18:53.308Z,97967.41
2022-12-09T12:22:56.082Z,97946.03
2022-12-09T12:26:16.099Z,97936.72
2022-12-09T12:29:42.428Z,97951.23
2022-12-09T12:36:33.372Z,97943.45
2022-12-09T12:39:55.708Z,97950.06
2022-12-09T12:43:41.233Z,97951.14
2022-12-09T12:47:06.232Z,97950.97
2022-12-09T12:50:32.400Z,97940.83
2022-12-09T12:53:51.040Z,97944.67
2022-12-09T12:57:09.972Z,97950.16
2022-12-09T13:00:26.283Z,97948.51
2022-12-09T13:03:46.412Z,97942.55
2022-12-09T13:07:04.983Z,97938.23
2022-12-09T13:10:26.759Z,97930.47
2022-12-09T13:13:43.032Z,97935.02
2022-12-09T13:16:57.165Z,97934.45
2022-12-09T13:20:13.067Z,97928.34
2022-12-09T13:23:47.863Z,97928.72
2022-12-09T13:27:06.907Z,97918.20
2022-12-09T13:30:24.058Z,97912.13
2022-12-09T13:33:47.218Z,97913.78
2022-12-09T13:36:59.233Z,97908.53
2022-12-09T13:40:32.351Z,97907.95
2022-12-09T13:43:46.551Z,97901.98
2022-12-09T13:46:58.596Z,97889.69
2022-12-09T13:50:18.840Z,97881.33
2022-12-09T13:53:35.052Z,97882.67
2022-12-09T13:56:47.828Z,97874.08
2022-12-09T14:00:03.059Z,97879.34
2022-12-09T14:03:25.163Z,97884.59
2022-12-09T14:06:42.571Z,97882.95
2022-12-09T14:10:00.259Z,97858.11
2022-12-09T14:13:35.576Z,97853.83
2022-12-09T14:16:47.776Z,97862.52
2022-12-09T14:20:08.279Z,97875.56
2022-12-09T14:23:23.697Z,97879.40
2022-12-09T14:26:44.526Z,97873.44
2022-12-09T14:30:00.434Z,97872.25
2022-12-09T14:33:33.330Z,97876.56
2022-12-09T14:36:48.731Z,97870.59
2022-12-09T14:40:06.506Z,97866.28
2022-12-09T14:43:50.136Z,97867.97
2022-12-09T14:47:17.582Z,97876.80
2022-12-09T14:50:32.778Z,97880.53
2022-12-09T14:53:45.537Z,97881.84
2022-12-09T14:57:01.952Z,97882.23
2022-12-09T15:00:35.060Z,97887.00
2022-12-09T15:03:49.023Z,97878.55
2022-12-09T15:07:16.851Z,97876.19
2022-12-09T15:10:32.081Z,97873.47
2022-12-09T15:13:47.152Z,97872.17
2022-12-09T15:17:00.280Z,97869.55
2022-12-09T15:20:25.761Z,97877.57
2022-12-09T15:23:42.533Z,97869.35
2022-12-09T15:27:07.053Z,97863.86
2022-12-09T15:30:34.353Z,97853.59
2022-12-09T15:33:53.386Z,97848.70
2022-12-09T15:37:09.052Z,97841.43
2022-12-09T15:40:27.541Z,97831.41
2022-12-09T15:43:42.543Z,97823.30
2022-12-09T15:46:57.816Z,97823.77
2022-12-09T15:50:18.136Z,97820.09
2022-12-09T15:53:34.775Z,97817.44
2022-12-09T15:56:50.632Z,97816.63
2022-12-09T16:00:06.098Z,97809.95
2022-12-09T16:03:21.425Z,97804.55
2022-12-09T16:06:37.702Z,97798.13
2022-12-09T16:10:08.208Z,97800.14
2022-12-09T16:13:23.123Z,97784.84
2022-12-09T16:16:43.503Z,97783.41
2022-12-09T16:19:55.705Z,97776.84
2022-12-09T16:23:10.568Z,97774.30
2022-12-09T16:26:28.194Z,97762.17
2022-12-09T16:29:42.658Z,97754.30
2022-12-09T16:32:57.078Z,97758.45
2022-12-09T16:36:14.691Z,97760.59
2022-12-09T16:39:42.882Z,97749.73
2022-12-09T16:42:56.914Z,97734.48
2022-12-09T16:46:31.512Z,97731.66
2022-12-09T16:49:43.936Z,97728.31
2022-12-09T16:52:56.183Z,97724.26
2022-12-09T16:56:09.517Z,97723.41
2022-12-09T16:59:21.364Z,97718.63
2022-12-09T17:02:38.187Z,97721.38
2022-12-09T17:05:49.070Z,97714.00
2022-12-09T17:09:00.967Z,97723.27
2022-12-09T17:12:13.730Z,97724.70
2022-12-09T17:15:26.835Z,97726.60
2022-12-09T17:18:39.514Z,97719.69
2022-12-09T17:21:52.215Z,97726.60
2022-12-09T17:25:04.328Z,97725.16
2022-12-09T17:28:16.818Z,97717.97
2022-12-09T17:31:30.147Z,97710.63
2022-12-09T17:34:42.431Z,97707.30
2022-12-09T17:37:57.223Z,97712.28
2022-12-09T17:41:16.099Z,97707.78
2022-12-09T17:44:28.633Z,97701.55
2022-12-09T17:47:40.536Z,97703.23
2022-12-09T17:50:52.400Z,97692.98
2022-12-09T17:54:05.256Z,97696.44
2022-12-09T17:57:17.731Z,97689.64
2022-12-09T18:00:30.080Z,97684.41
2022-12-09T18:03:59.376Z,97683.94
2022-12-09T18:06:55.866Z,97690.22
2022-12-09T18:10:08.502Z,97677.74
2022-12-09T18:13:20.886Z,97681.77
2022-12-09T18:16:32.856Z,97671.78
2022-12-09T18:19:45.536Z,97673.80
2022-12-09T18:22:57.445Z,97671.30
2022-12-09T18:26:13.572Z,97672.59
2022-12-09T18:29:25.661Z,97660.24
2022-12-09T18:32:38.644Z,97659.20
2022-12-09T18:35:50.568Z,97652.52
2022-12-09T18:39:03.717Z,97651.56
2022-12-09T18:42:15.623Z,97656.30
2022-12-09T18:45:27.527Z,97652.41
2022-12-09T18:48:41.736Z,97642.99
2022-12-09T18:51:55.734Z,97643.11
2022-12-09T18:55:07.641Z,97638.45
2022-12-09T18:58:31.573Z,97626.47
2022-12-09T19:01:38.514Z,97643.11
2022-12-09T19:04:50.885Z,97628.59
2022-12-09T19:08:02.888Z,97619.70
2022-12-09T19:11:15.564Z,97620.30
2022-12-09T19:14:29.313Z,97617.56
2022-12-09T19:17:42.707Z,97608.07
2022-12-09T19:20:54.733Z,97609.25
2022-12-09T19:24:07.159Z,97605.46
2022-12-09T19:27:19.149Z,97602.13
2022-12-09T19:30:31.255Z,97603.56
2022-12-09T19:33:43.264Z,97593.31
2022-12-09T19:36:57.537Z,97593.31
2022-12-09T19:40:11.758Z,97577.61
2022-12-09T19:43:23.770Z,97593.56
2022-12-09T19:46:38.619Z,97589.77
2022-12-09T19:49:50.896Z,97594.16
2022-12-09T19:53:04.054Z,97579.31
2022-12-09T19:56:19.509Z,97580.97
2022-12-09T19:59:32.200Z,97575.26
2022-12-09T20:02:44.937Z,97575.86
2022-12-09T20:06:00.073Z,97584.30
2022-12-09T20:09:14.631Z,97576.58
2022-12-09T20:12:26.635Z,97576.45
2022-12-09T20:15:41.938Z,97575.14
2022-12-09T20:18:54.861Z,97582.64
2022-12-09T20:22:06.875Z,97579.31
2022-12-09T20:25:19.217Z,97569.78
2022-12-09T20:28:31.269Z,97561.73
2022-12-09T20:31:46.113Z,97556.50
2022-12-09T20:34:58.081Z,97553.38
2022-12-09T20:38:11.159Z,97551.48
2022-12-09T20:41:23.634Z,97550.89
2022-12-09T20:44:36.480Z,97554.94
2022-12-09T20:47:48.330Z,97547.81
2022-12-09T20:51:00.538Z,97549.38
2022-12-09T20:54:14.178Z,97548.75
2022-12-09T20:57:26.301Z,97546.26
2022-12-09T21:00:38.405Z,97549.59
2022-12-09T21:03:51.683Z,97546.71
2022-12-09T21:07:04.246Z,97547.09
2022-12-09T21:10:19.264Z,97543.52
2022-12-09T21:13:31.165Z,97547.31
2022-12-09T21:16:47.011Z,97546.84
2022-12-09T21:19:58.990Z,97555.52
2022-12-09T21:23:33.340Z,97550.75
2022-12-09T21:26:27.660Z,97558.08
2022-12-09T21:29:40.322Z,97554.75
2022-12-09T21:32:52.216Z,97553.09
2022-12-09T21:36:04.172Z,97554.87
2022-12-09T21:39:19.462Z,97555.20
2022-12-09T21:42:31.388Z,97557.72
2022-12-09T21:45:43.394Z,97546.91
2022-12-09T21:49:03.308Z,97542.64
2022-12-09T21:52:12.434Z,97538.61
2022-12-09T21:55:24.650Z,97541.80
2022-12-09T21:58:38.248Z,97543.94
2022-12-09T22:01:50.631Z,97547.36
2022-12-09T22:05:02.658Z,97539.43
2022-12-09T22:08:14.732Z,97550.12
2022-12-09T22:11:29.875Z,97536.81
2022-12-09T22:14:41.975Z,97551.86
2022-12-09T22:17:53.987Z,97529.91
2022-12-09T22:21:27.252Z,97527.53
2022-12-09T22:24:25.918Z,97539.52
2022-12-09T22:27:37.938Z,97524.68
2022-12-09T22:30:49.841Z,97532.85
2022-12-09T22:34:06.704Z,97525.14
2022-12-09T22:37:43.035Z,97520.50
2022-12-09T22:40:36.221Z,97522.40
2022-12-09T22:43:49.939Z,97519.78
2022-12-09T22:47:02.088Z,97510.05
2022-12-09T22:50:15.918Z,97511.14
2022-12-09T22:53:27.858Z,97506.63
2022-12-09T22:56:40.862Z,97508.16
2022-12-09T22:59:52.681Z,97515.19
2022-12-09T23:03:04.674Z,97501.41
2022-12-09T23:06:17.811Z,97507.69
2022-12-09T23:09:31.037Z,97510.30
2022-12-09T23:12:43.035Z,97497.95
2022-12-09T23:15:55.983Z,97508.28
2022-12-09T23:19:08.611Z,97493.31
2022-12-09T23:22:20.499Z,97494.28
2022-12-09T23:25:32.430Z,97494.16
2022-12-09T23:28:46.735Z,97496.05
2022-12-09T23:31:58.540Z,97499.14
2022-12-09T23:35:12.275Z,97498.55
2022-12-09T23:38:24.231Z,97505.55
2022-12-09T23:41:36.279Z,97493.20
2022-12-09T23:44:49.164Z,97497.70
2022-12-09T23:48:02.242Z,97486.53
2022-12-09T23:51:20.998Z,97483.00
2022-12-09T23:54:35.156Z,97486.58
2022-12-09T23:57:48.953Z,97485.36
